sensor_id;sensor_type;location;lat;lon;timestamp;temperature;humidity
77100;SHT31;66602;48.922;2.414;2024-02-26T00:01:54;8.53;96.27
77100;SHT31;66602;48.922;2.414;2024-02-26T00:04:21;8.57;96.20
77100;SHT31;66602;48.922;2.414;2024-02-26T00:06:54;8.63;95.95
77100;SHT31;66602;48.922;2.414;2024-02-26T00:09:26;8.68;95.80
77100;SHT31;66602;48.922;2.414;2024-02-26T00:11:56;8.66;95.64
77100;SHT31;66602;48.922;2.414;2024-02-26T00:14:23;8.70;95.60
77100;SHT31;66602;48.922;2.414;2024-02-26T00:16:53;8.66;95.53
77100;SHT31;66602;48.922;2.414;2024-02-26T00:19:24;8.66;95.56
77100;SHT31;66602;48.922;2.414;2024-02-26T00:21:51;8.64;95.73
77100;SHT31;66602;48.922;2.414;2024-02-26T00:24:25;8.53;95.66
77100;SHT31;66602;48.922;2.414;2024-02-26T00:26:51;8.50;95.53
77100;SHT31;66602;48.922;2.414;2024-02-26T00:29:20;8.50;95.80
77100;SHT31;66602;48.922;2.414;2024-02-26T00:31:47;8.39;95.99
77100;SHT31;66602;48.922;2.414;2024-02-26T00:34:13;8.40;96.06
77100;SHT31;66602;48.922;2.414;2024-02-26T00:36:39;8.43;96.28
77100;SHT31;66602;48.922;2.414;2024-02-26T00:39:06;8.44;96.50
77100;SHT31;66602;48.922;2.414;2024-02-26T00:41:32;8.46;96.54
77100;SHT31;66602;48.922;2.414;2024-02-26T00:43:59;8.54;96.59
77100;SHT31;66602;48.922;2.414;2024-02-26T00:46:46;8.54;96.76
77100;SHT31;66602;48.922;2.414;2024-02-26T00:49:16;8.68;96.90
77100;SHT31;66602;48.922;2.414;2024-02-26T00:51:42;8.73;96.78
77100;SHT31;66602;48.922;2.414;2024-02-26T00:54:10;8.78;96.74
77100;SHT31;66602;48.922;2.414;2024-02-26T00:56:36;8.84;96.64
77100;SHT31;66602;48.922;2.414;2024-02-26T00:59:22;8.85;96.39
77100;SHT31;66602;48.922;2.414;2024-02-26T01:02:07;8.89;96.13
77100;SHT31;66602;48.922;2.414;2024-02-26T01:04:34;8.92;96.11
77100;SHT31;66602;48.922;2.414;2024-02-26T01:10:34;8.97;95.70
77100;SHT31;66602;48.922;2.414;2024-02-26T01:14:07;9.07;95.27
77100;SHT31;66602;48.922;2.414;2024-02-26T01:16:53;9.03;95.13
77100;SHT31;66602;48.922;2.414;2024-02-26T01:19:41;9.01;95.08
77100;SHT31;66602;48.922;2.414;2024-02-26T01:22:50;9.00;95.19
77100;SHT31;66602;48.922;2.414;2024-02-26T01:25:32;9.03;95.30
77100;SHT31;66602;48.922;2.414;2024-02-26T01:28:17;9.07;95.28
77100;SHT31;66602;48.922;2.414;2024-02-26T01:31:46;9.04;95.30
77100;SHT31;66602;48.922;2.414;2024-02-26T01:34:53;9.03;95.49
77100;SHT31;66602;48.922;2.414;2024-02-26T01:37:56;9.01;95.55
77100;SHT31;66602;48.922;2.414;2024-02-26T01:40:42;9.00;95.58
77100;SHT31;66602;48.922;2.414;2024-02-26T01:43:08;9.01;95.63
77100;SHT31;66602;48.922;2.414;2024-02-26T01:45:52;9.04;95.51
77100;SHT31;66602;48.922;2.414;2024-02-26T01:55:59;9.05;95.66
77100;SHT31;66602;48.922;2.414;2024-02-26T01:59:03;9.07;95.68
77100;SHT31;66602;48.922;2.414;2024-02-26T02:01:31;9.08;95.67
77100;SHT31;66602;48.922;2.414;2024-02-26T02:03:59;9.14;95.54
77100;SHT31;66602;48.922;2.414;2024-02-26T02:06:25;9.12;95.52
77100;SHT31;66602;48.922;2.414;2024-02-26T02:08:52;9.15;95.38
77100;SHT31;66602;48.922;2.414;2024-02-26T02:11:18;9.16;95.37
77100;SHT31;66602;48.922;2.414;2024-02-26T02:13:45;9.11;95.32
77100;SHT31;66602;48.922;2.414;2024-02-26T02:16:10;9.10;95.26
77100;SHT31;66602;48.922;2.414;2024-02-26T02:18:36;9.11;95.13
77100;SHT31;66602;48.922;2.414;2024-02-26T02:21:02;9.07;95.05
77100;SHT31;66602;48.922;2.414;2024-02-26T02:23:27;8.98;95.05
77100;SHT31;66602;48.922;2.414;2024-02-26T02:25:53;9.00;95.25
77100;SHT31;66602;48.922;2.414;2024-02-26T02:28:23;9.03;95.32
77100;SHT31;66602;48.922;2.414;2024-02-26T02:30:50;9.03;95.18
77100;SHT31;66602;48.922;2.414;2024-02-26T02:33:16;9.01;95.23
77100;SHT31;66602;48.922;2.414;2024-02-26T02:35:43;9.04;95.17
77100;SHT31;66602;48.922;2.414;2024-02-26T02:38:08;9.03;95.05
77100;SHT31;66602;48.922;2.414;2024-02-26T02:40:34;9.04;95.02
77100;SHT31;66602;48.922;2.414;2024-02-26T02:43:00;9.01;95.01
77100;SHT31;66602;48.922;2.414;2024-02-26T02:45:27;9.00;95.03
77100;SHT31;66602;48.922;2.414;2024-02-26T02:47:54;8.98;95.03
77100;SHT31;66602;48.922;2.414;2024-02-26T02:50:20;8.97;94.95
77100;SHT31;66602;48.922;2.414;2024-02-26T02:52:46;8.97;94.92
77100;SHT31;66602;48.922;2.414;2024-02-26T02:58:49;8.94;94.67
77100;SHT31;66602;48.922;2.414;2024-02-26T03:01:14;8.88;94.59
77100;SHT31;66602;48.922;2.414;2024-02-26T03:03:39;8.80;94.75
77100;SHT31;66602;48.922;2.414;2024-02-26T03:06:05;8.74;95.02
77100;SHT31;66602;48.922;2.414;2024-02-26T03:08:30;8.77;95.09
77100;SHT31;66602;48.922;2.414;2024-02-26T03:10:58;8.77;95.14
77100;SHT31;66602;48.922;2.414;2024-02-26T03:13:24;8.81;95.07
77100;SHT31;66602;48.922;2.414;2024-02-26T03:15:51;8.87;94.97
77100;SHT31;66602;48.922;2.414;2024-02-26T03:18:16;8.85;94.97
77100;SHT31;66602;48.922;2.414;2024-02-26T03:20:42;8.87;94.93
77100;SHT31;66602;48.922;2.414;2024-02-26T03:23:07;8.83;94.80
77100;SHT31;66602;48.922;2.414;2024-02-26T03:25:35;8.81;94.80
77100;SHT31;66602;48.922;2.414;2024-02-26T03:28:01;8.87;94.81
77100;SHT31;66602;48.922;2.414;2024-02-26T03:30:26;8.85;94.69
77100;SHT31;66602;48.922;2.414;2024-02-26T03:32:52;8.87;94.47
77100;SHT31;66602;48.922;2.414;2024-02-26T03:35:17;8.88;94.47
77100;SHT31;66602;48.922;2.414;2024-02-26T03:37:43;8.89;94.38
77100;SHT31;66602;48.922;2.414;2024-02-26T03:40:09;8.87;94.37
77100;SHT31;66602;48.922;2.414;2024-02-26T03:42:35;8.84;94.31
77100;SHT31;66602;48.922;2.414;2024-02-26T03:45:00;8.81;94.47
77100;SHT31;66602;48.922;2.414;2024-02-26T03:48:03;8.77;94.63
77100;SHT31;66602;48.922;2.414;2024-02-26T03:51:00;8.77;94.71
77100;SHT31;66602;48.922;2.414;2024-02-26T03:54:09;8.80;94.74
77100;SHT31;66602;48.922;2.414;2024-02-26T03:57:47;8.73;94.79
77100;SHT31;66602;48.922;2.414;2024-02-26T04:00:33;8.70;94.87
77100;SHT31;66602;48.922;2.414;2024-02-26T04:03:15;8.68;94.97
77100;SHT31;66602;48.922;2.414;2024-02-26T04:06:36;8.73;95.10
77100;SHT31;66602;48.922;2.414;2024-02-26T04:10:03;8.70;95.10
77100;SHT31;66602;48.922;2.414;2024-02-26T04:13:07;8.74;95.25
77100;SHT31;66602;48.922;2.414;2024-02-26T04:16:28;8.81;95.18
77100;SHT31;66602;48.922;2.414;2024-02-26T04:20:13;8.88;94.92
77100;SHT31;66602;48.922;2.414;2024-02-26T04:23:53;8.89;94.68
77100;SHT31;66602;48.922;2.414;2024-02-26T04:27:35;8.87;94.56
77100;SHT31;66602;48.922;2.414;2024-02-26T04:30:51;8.88;94.56
77100;SHT31;66602;48.922;2.414;2024-02-26T04:34:26;8.84;94.53
77100;SHT31;66602;48.922;2.414;2024-02-26T04:37:39;8.80;94.65
77100;SHT31;66602;48.922;2.414;2024-02-26T04:40:17;8.83;94.70
77100;SHT31;66602;48.922;2.414;2024-02-26T04:50:09;8.87;94.54
77100;SHT31;66602;48.922;2.414;2024-02-26T05:16:43;8.54;95.33
77100;SHT31;66602;48.922;2.414;2024-02-26T05:19:09;8.52;95.46
77100;SHT31;66602;48.922;2.414;2024-02-26T05:21:36;8.50;95.52
77100;SHT31;66602;48.922;2.414;2024-02-26T05:24:01;8.53;95.67
77100;SHT31;66602;48.922;2.414;2024-02-26T05:26:44;8.50;95.70
77100;SHT31;66602;48.922;2.414;2024-02-26T05:29:50;8.49;95.79
77100;SHT31;66602;48.922;2.414;2024-02-26T05:37:03;8.52;95.92
77100;SHT31;66602;48.922;2.414;2024-02-26T05:40:17;8.52;95.97
77100;SHT31;66602;48.922;2.414;2024-02-26T05:42:53;8.52;95.99
77100;SHT31;66602;48.922;2.414;2024-02-26T05:45:35;8.50;96.00
77100;SHT31;66602;48.922;2.414;2024-02-26T05:48:30;8.50;96.02
77100;SHT31;66602;48.922;2.414;2024-02-26T05:52:02;8.49;95.96
77100;SHT31;66602;48.922;2.414;2024-02-26T05:55:08;8.43;96.10
77100;SHT31;66602;48.922;2.414;2024-02-26T05:58:43;8.49;96.22
77100;SHT31;66602;48.922;2.414;2024-02-26T06:02:08;8.43;96.23
77100;SHT31;66602;48.922;2.414;2024-02-26T06:05:48;8.39;96.29
77100;SHT31;66602;48.922;2.414;2024-02-26T06:09:42;8.37;96.35
77100;SHT31;66602;48.922;2.414;2024-02-26T06:13:02;8.35;96.37
77100;SHT31;66602;48.922;2.414;2024-02-26T06:16:08;8.23;96.27
77100;SHT31;66602;48.922;2.414;2024-02-26T06:18:33;8.16;96.32
77100;SHT31;66602;48.922;2.414;2024-02-26T06:25:14;8.07;96.51
77100;SHT31;66602;48.922;2.414;2024-02-26T06:28:05;8.09;96.69
77100;SHT31;66602;48.922;2.414;2024-02-26T06:33:21;8.10;96.83
77100;SHT31;66602;48.922;2.414;2024-02-26T06:35:49;8.09;96.87
77100;SHT31;66602;48.922;2.414;2024-02-26T06:38:18;8.13;96.92
77100;SHT31;66602;48.922;2.414;2024-02-26T06:44:38;8.19;97.06
77100;SHT31;66602;48.922;2.414;2024-02-26T06:48:22;8.23;97.16
77100;SHT31;66602;48.922;2.414;2024-02-26T06:51:06;8.25;97.23
77100;SHT31;66602;48.922;2.414;2024-02-26T06:53:58;8.32;97.24
77100;SHT31;66602;48.922;2.414;2024-02-26T06:56:27;8.35;97.24
77100;SHT31;66602;48.922;2.414;2024-02-26T06:58:53;8.36;97.27
77100;SHT31;66602;48.922;2.414;2024-02-26T07:01:20;8.39;97.27
77100;SHT31;66602;48.922;2.414;2024-02-26T07:03:50;8.37;97.30
77100;SHT31;66602;48.922;2.414;2024-02-26T07:06:20;8.44;97.24
77100;SHT31;66602;48.922;2.414;2024-02-26T07:08:48;8.44;97.26
77100;SHT31;66602;48.922;2.414;2024-02-26T07:11:15;8.46;97.24
77100;SHT31;66602;48.922;2.414;2024-02-26T07:13:40;8.46;97.22
77100;SHT31;66602;48.922;2.414;2024-02-26T07:16:09;8.50;97.19
77100;SHT31;66602;48.922;2.414;2024-02-26T07:18:35;8.50;97.22
77100;SHT31;66602;48.922;2.414;2024-02-26T07:21:03;8.50;97.17
77100;SHT31;66602;48.922;2.414;2024-02-26T07:23:29;8.54;97.17
77100;SHT31;66602;48.922;2.414;2024-02-26T07:25:54;8.56;97.14
77100;SHT31;66602;48.922;2.414;2024-02-26T07:28:20;8.61;97.14
77100;SHT31;66602;48.922;2.414;2024-02-26T07:30:51;8.60;97.08
77100;SHT31;66602;48.922;2.414;2024-02-26T07:33:17;8.66;97.08
77100;SHT31;66602;48.922;2.414;2024-02-26T07:35:42;8.64;97.01
77100;SHT31;66602;48.922;2.414;2024-02-26T07:38:09;8.70;96.93
77100;SHT31;66602;48.922;2.414;2024-02-26T07:40:35;8.74;96.87
77100;SHT31;66602;48.922;2.414;2024-02-26T07:43:03;8.75;96.95
77100;SHT31;66602;48.922;2.414;2024-02-26T07:45:28;8.81;96.89
77100;SHT31;66602;48.922;2.414;2024-02-26T07:47:54;8.81;96.84
77100;SHT31;66602;48.922;2.414;2024-02-26T07:50:20;8.87;96.84
77100;SHT31;66602;48.922;2.414;2024-02-26T07:52:46;8.91;96.87
77100;SHT31;66602;48.922;2.414;2024-02-26T07:55:11;8.98;96.85
77100;SHT31;66602;48.922;2.414;2024-02-26T07:57:42;9.01;96.78
77100;SHT31;66602;48.922;2.414;2024-02-26T08:00:08;9.04;96.69
77100;SHT31;66602;48.922;2.414;2024-02-26T08:02:34;9.08;96.69
77100;SHT31;66602;48.922;2.414;2024-02-26T08:05:00;9.15;96.59
77100;SHT31;66602;48.922;2.414;2024-02-26T08:07:25;9.19;96.48
77100;SHT31;66602;48.922;2.414;2024-02-26T08:09:52;9.25;96.49
77100;SHT31;66602;48.922;2.414;2024-02-26T08:12:19;9.26;96.29
77100;SHT31;66602;48.922;2.414;2024-02-26T08:14:45;9.34;96.24
77100;SHT31;66602;48.922;2.414;2024-02-26T08:17:10;9.39;96.10
77100;SHT31;66602;48.922;2.414;2024-02-26T08:19:36;9.40;95.92
77100;SHT31;66602;48.922;2.414;2024-02-26T08:22:02;9.43;95.92
77100;SHT31;66602;48.922;2.414;2024-02-26T08:24:27;9.43;95.80
77100;SHT31;66602;48.922;2.414;2024-02-26T08:26:53;9.46;95.66
77100;SHT31;66602;48.922;2.414;2024-02-26T08:29:19;9.46;95.61
77100;SHT31;66602;48.922;2.414;2024-02-26T08:31:45;9.53;95.58
77100;SHT31;66602;48.922;2.414;2024-02-26T08:34:11;9.50;95.20
77100;SHT31;66602;48.922;2.414;2024-02-26T08:36:36;9.50;95.16
77100;SHT31;66602;48.922;2.414;2024-02-26T08:39:02;9.53;95.20
77100;SHT31;66602;48.922;2.414;2024-02-26T08:41:28;9.59;94.99
77100;SHT31;66602;48.922;2.414;2024-02-26T08:43:53;9.60;94.83
77100;SHT31;66602;48.922;2.414;2024-02-26T08:46:20;9.63;94.70
77100;SHT31;66602;48.922;2.414;2024-02-26T08:48:46;9.66;94.52
77100;SHT31;66602;48.922;2.414;2024-02-26T08:51:13;9.63;94.30
77100;SHT31;66602;48.922;2.414;2024-02-26T08:53:39;9.66;94.51
77100;SHT31;66602;48.922;2.414;2024-02-26T08:56:05;9.73;94.45
77100;SHT31;66602;48.922;2.414;2024-02-26T08:58:30;9.80;94.37
77100;SHT31;66602;48.922;2.414;2024-02-26T09:00:57;9.84;94.29
77100;SHT31;66602;48.922;2.414;2024-02-26T09:03:23;9.90;94.08
77100;SHT31;66602;48.922;2.414;2024-02-26T09:05:49;10.07;93.97
77100;SHT31;66602;48.922;2.414;2024-02-26T09:08:14;10.28;93.96
77100;SHT31;66602;48.922;2.414;2024-02-26T09:10:41;10.55;93.25
77100;SHT31;66602;48.922;2.414;2024-02-26T09:13:07;10.83;92.63
77100;SHT31;66602;48.922;2.414;2024-02-26T09:15:34;10.95;91.73
77100;SHT31;66602;48.922;2.414;2024-02-26T09:18:00;10.99;91.58
77100;SHT31;66602;48.922;2.414;2024-02-26T09:20:27;11.04;91.41
77100;SHT31;66602;48.922;2.414;2024-02-26T09:22:52;10.96;91.15
77100;SHT31;66602;48.922;2.414;2024-02-26T09:25:20;10.96;91.40
77100;SHT31;66602;48.922;2.414;2024-02-26T09:27:46;10.83;90.69
77100;SHT31;66602;48.922;2.414;2024-02-26T09:30:15;10.71;90.91
77100;SHT31;66602;48.922;2.414;2024-02-26T09:32:40;10.72;91.29
77100;SHT31;66602;48.922;2.414;2024-02-26T09:35:06;10.93;91.64
77100;SHT31;66602;48.922;2.414;2024-02-26T09:37:33;11.23;91.04
77100;SHT31;66602;48.922;2.414;2024-02-26T09:40:13;11.47;90.02
77100;SHT31;66602;48.922;2.414;2024-02-26T09:42:45;11.71;89.76
77100;SHT31;66602;48.922;2.414;2024-02-26T09:45:19;11.84;88.65
77100;SHT31;66602;48.922;2.414;2024-02-26T09:48:08;11.77;88.42
77100;SHT31;66602;48.922;2.414;2024-02-26T09:50:47;11.77;89.22
77100;SHT31;66602;48.922;2.414;2024-02-26T09:53:16;11.86;88.67
77100;SHT31;66602;48.922;2.414;2024-02-26T09:55:42;11.96;88.29
77100;SHT31;66602;48.922;2.414;2024-02-26T09:58:08;12.06;87.95
77100;SHT31;66602;48.922;2.414;2024-02-26T10:00:37;12.15;88.29
77100;SHT31;66602;48.922;2.414;2024-02-26T10:03:06;12.29;87.70
77100;SHT31;66602;48.922;2.414;2024-02-26T10:05:36;12.39;87.85
77100;SHT31;66602;48.922;2.414;2024-02-26T10:08:06;12.34;87.53
77100;SHT31;66602;48.922;2.414;2024-02-26T10:10:37;12.52;87.93
77100;SHT31;66602;48.922;2.414;2024-02-26T10:13:07;12.54;86.89
77100;SHT31;66602;48.922;2.414;2024-02-26T10:15:36;12.47;86.86
77100;SHT31;66602;48.922;2.414;2024-02-26T10:18:07;12.42;86.80
77100;SHT31;66602;48.922;2.414;2024-02-26T10:20:33;12.53;87.53
77100;SHT31;66602;48.922;2.414;2024-02-26T10:23:02;12.65;86.60
77100;SHT31;66602;48.922;2.414;2024-02-26T10:25:28;12.61;86.35
77100;SHT31;66602;48.922;2.414;2024-02-26T10:27:53;12.71;86.72
77100;SHT31;66602;48.922;2.414;2024-02-26T10:30:22;12.90;86.56
77100;SHT31;66602;48.922;2.414;2024-02-26T10:32:51;12.83;85.53
77100;SHT31;66602;48.922;2.414;2024-02-26T10:35:17;12.68;86.12
77100;SHT31;66602;48.922;2.414;2024-02-26T10:37:43;12.57;86.57
77100;SHT31;66602;48.922;2.414;2024-02-26T10:40:14;12.37;85.93
77100;SHT31;66602;48.922;2.414;2024-02-26T10:42:57;12.37;86.59
77100;SHT31;66602;48.922;2.414;2024-02-26T10:45:24;12.46;86.67
77100;SHT31;66602;48.922;2.414;2024-02-26T10:47:50;12.30;85.45
77100;SHT31;66602;48.922;2.414;2024-02-26T10:50:17;12.11;86.33
77100;SHT31;66602;48.922;2.414;2024-02-26T10:52:43;11.98;87.69
77100;SHT31;66602;48.922;2.414;2024-02-26T10:55:15;11.96;87.71
77100;SHT31;66602;48.922;2.414;2024-02-26T10:57:42;12.42;87.74
77100;SHT31;66602;48.922;2.414;2024-02-26T11:00:12;13.07;86.48
77100;SHT31;66602;48.922;2.414;2024-02-26T11:02:42;13.51;83.13
77100;SHT31;66602;48.922;2.414;2024-02-26T11:05:18;14.06;83.10
77100;SHT31;66602;48.922;2.414;2024-02-26T11:08:00;14.24;82.27
77100;SHT31;66602;48.922;2.414;2024-02-26T11:10:32;13.77;81.64
77100;SHT31;66602;48.922;2.414;2024-02-26T11:12:59;13.22;83.48
77100;SHT31;66602;48.922;2.414;2024-02-26T11:15:28;12.80;83.39
77100;SHT31;66602;48.922;2.414;2024-02-26T11:18:15;12.42;85.82
77100;SHT31;66602;48.922;2.414;2024-02-26T11:21:07;12.01;85.97
77100;SHT31;66602;48.922;2.414;2024-02-26T11:23:59;11.60;86.93
77100;SHT31;66602;48.922;2.414;2024-02-26T11:27:11;11.26;87.36
77100;SHT31;66602;48.922;2.414;2024-02-26T11:29:44;11.03;88.80
77100;SHT31;66602;48.922;2.414;2024-02-26T11:32:17;10.79;89.66
77100;SHT31;66602;48.922;2.414;2024-02-26T11:34:48;10.42;90.21
77100;SHT31;66602;48.922;2.414;2024-02-26T11:37:22;9.98;90.21
77100;SHT31;66602;48.922;2.414;2024-02-26T11:39:51;9.70;91.18
77100;SHT31;66602;48.922;2.414;2024-02-26T11:42:34;9.46;91.60
77100;SHT31;66602;48.922;2.414;2024-02-26T11:44:59;9.28;92.41
77100;SHT31;66602;48.922;2.414;2024-02-26T11:47:27;9.22;92.62
77100;SHT31;66602;48.922;2.414;2024-02-26T11:49:54;9.34;92.70
77100;SHT31;66602;48.922;2.414;2024-02-26T11:52:19;9.24;92.97
77100;SHT31;66602;48.922;2.414;2024-02-26T11:54:51;9.10;92.81
77100;SHT31;66602;48.922;2.414;2024-02-26T12:00:16;9.42;92.89
77100;SHT31;66602;48.922;2.414;2024-02-26T12:02:55;9.46;92.44
77100;SHT31;66602;48.922;2.414;2024-02-26T12:05:31;9.40;92.39
77100;SHT31;66602;48.922;2.414;2024-02-26T12:08:04;9.43;92.54
77100;SHT31;66602;48.922;2.414;2024-02-26T12:10:33;9.36;92.20
77100;SHT31;66602;48.922;2.414;2024-02-26T12:13:14;9.31;92.25
77100;SHT31;66602;48.922;2.414;2024-02-26T12:16:02;9.21;92.63
77100;SHT31;66602;48.922;2.414;2024-02-26T12:18:35;8.98;92.39
77100;SHT31;66602;48.922;2.414;2024-02-26T12:21:19;8.83;92.97
77100;SHT31;66602;48.922;2.414;2024-02-26T12:24:22;8.71;93.24
77100;SHT31;66602;48.922;2.414;2024-02-26T12:26:51;8.83;93.82
77100;SHT31;66602;48.922;2.414;2024-02-26T12:29:37;8.91;93.80
77100;SHT31;66602;48.922;2.414;2024-02-26T12:32:07;8.85;93.44
77100;SHT31;66602;48.922;2.414;2024-02-26T12:34:33;8.78;93.47
77100;SHT31;66602;48.922;2.414;2024-02-26T12:37:01;8.66;93.26
77100;SHT31;66602;48.922;2.414;2024-02-26T12:39:30;8.63;93.77
77100;SHT31;66602;48.922;2.414;2024-02-26T12:41:58;8.57;93.85
77100;SHT31;66602;48.922;2.414;2024-02-26T12:44:25;8.50;93.77
77100;SHT31;66602;48.922;2.414;2024-02-26T12:47:03;8.53;94.01
77100;SHT31;66602;48.922;2.414;2024-02-26T12:49:30;8.53;93.99
77100;SHT31;66602;48.922;2.414;2024-02-26T12:52:00;8.44;93.54
77100;SHT31;66602;48.922;2.414;2024-02-26T12:54:33;8.43;93.87
77100;SHT31;66602;48.922;2.414;2024-02-26T12:57:04;8.50;93.84
77100;SHT31;66602;48.922;2.414;2024-02-26T12:59:37;8.66;93.81
77100;SHT31;66602;48.922;2.414;2024-02-26T13:02:22;8.71;93.33
77100;SHT31;66602;48.922;2.414;2024-02-26T13:04:50;8.73;93.71
77100;SHT31;66602;48.922;2.414;2024-02-26T13:07:46;8.64;93.51
77100;SHT31;66602;48.922;2.414;2024-02-26T13:10:14;8.61;93.67
77100;SHT31;66602;48.922;2.414;2024-02-26T13:12:45;8.60;93.29
77100;SHT31;66602;48.922;2.414;2024-02-26T13:15:16;8.60;93.46
77100;SHT31;66602;48.922;2.414;2024-02-26T13:17:48;8.60;93.61
77100;SHT31;66602;48.922;2.414;2024-02-26T13:20:29;8.54;93.75
77100;SHT31;66602;48.922;2.414;2024-02-26T13:23:03;8.37;93.62
77100;SHT31;66602;48.922;2.414;2024-02-26T13:25:30;8.37;94.02
77100;SHT31;66602;48.922;2.414;2024-02-26T13:28:17;8.42;94.08
77100;SHT31;66602;48.922;2.414;2024-02-26T13:30:54;8.42;94.26
77100;SHT31;66602;48.922;2.414;2024-02-26T13:33:24;8.35;94.17
77100;SHT31;66602;48.922;2.414;2024-02-26T13:35:51;8.35;94.24
77100;SHT31;66602;48.922;2.414;2024-02-26T13:38:27;8.33;94.32
77100;SHT31;66602;48.922;2.414;2024-02-26T13:40:59;8.32;94.14
77100;SHT31;66602;48.922;2.414;2024-02-26T13:43:33;8.23;93.92
77100;SHT31;66602;48.922;2.414;2024-02-26T13:45:58;8.19;94.22
77100;SHT31;66602;48.922;2.414;2024-02-26T13:48:25;8.12;94.14
77100;SHT31;66602;48.922;2.414;2024-02-26T13:50:58;8.15;94.17
77100;SHT31;66602;48.922;2.414;2024-02-26T13:53:45;8.17;94.08
77100;SHT31;66602;48.922;2.414;2024-02-26T13:56:15;8.16;94.02
77100;SHT31;66602;48.922;2.414;2024-02-26T13:58:43;8.15;93.94
77100;SHT31;66602;48.922;2.414;2024-02-26T14:01:10;8.19;93.97
77100;SHT31;66602;48.922;2.414;2024-02-26T14:03:37;8.23;93.24
77100;SHT31;66602;48.922;2.414;2024-02-26T14:06:40;8.19;93.26
77100;SHT31;66602;48.922;2.414;2024-02-26T14:09:08;8.23;93.46
77100;SHT31;66602;48.922;2.414;2024-02-26T14:11:45;8.26;93.18
77100;SHT31;66602;48.922;2.414;2024-02-26T14:14:18;8.23;92.72
77100;SHT31;66602;48.922;2.414;2024-02-26T14:16:44;8.28;92.80
77100;SHT31;66602;48.922;2.414;2024-02-26T14:19:12;8.32;92.77
77100;SHT31;66602;48.922;2.414;2024-02-26T14:21:41;8.40;92.90
77100;SHT31;66602;48.922;2.414;2024-02-26T14:24:15;8.29;92.37
77100;SHT31;66602;48.922;2.414;2024-02-26T14:26:41;8.15;92.51
77100;SHT31;66602;48.922;2.414;2024-02-26T14:29:12;8.05;93.04
77100;SHT31;66602;48.922;2.414;2024-02-26T14:31:39;7.96;93.54
77100;SHT31;66602;48.922;2.414;2024-02-26T14:34:09;7.89;93.34
77100;SHT31;66602;48.922;2.414;2024-02-26T14:36:35;7.84;93.63
77100;SHT31;66602;48.922;2.414;2024-02-26T14:39:00;7.88;93.81
77100;SHT31;66602;48.922;2.414;2024-02-26T14:41:26;7.82;93.82
77100;SHT31;66602;48.922;2.414;2024-02-26T14:43:53;7.74;93.82
77100;SHT31;66602;48.922;2.414;2024-02-26T14:46:21;7.67;93.94
77100;SHT31;66602;48.922;2.414;2024-02-26T14:48:47;7.70;94.31
77100;SHT31;66602;48.922;2.414;2024-02-26T14:51:13;7.63;94.08
77100;SHT31;66602;48.922;2.414;2024-02-26T14:53:40;7.55;94.23
77100;SHT31;66602;48.922;2.414;2024-02-26T14:56:32;7.47;94.46
77100;SHT31;66602;48.922;2.414;2024-02-26T14:59:34;7.42;94.68
77100;SHT31;66602;48.922;2.414;2024-02-26T15:03:36;7.33;94.46
77100;SHT31;66602;48.922;2.414;2024-02-26T15:06:38;7.31;94.42
77100;SHT31;66602;48.922;2.414;2024-02-26T15:10:06;7.23;94.18
77100;SHT31;66602;48.922;2.414;2024-02-26T15:12:36;7.23;94.25
77100;SHT31;66602;48.922;2.414;2024-02-26T15:15:03;7.24;94.33
77100;SHT31;66602;48.922;2.414;2024-02-26T15:17:35;7.24;94.07
77100;SHT31;66602;48.922;2.414;2024-02-26T15:20:01;7.22;94.15
77100;SHT31;66602;48.922;2.414;2024-02-26T15:22:28;7.19;94.13
77100;SHT31;66602;48.922;2.414;2024-02-26T15:25:04;7.17;93.77
77100;SHT31;66602;48.922;2.414;2024-02-26T15:27:30;7.12;93.51
77100;SHT31;66602;48.922;2.414;2024-02-26T15:29:56;7.12;93.47
77100;SHT31;66602;48.922;2.414;2024-02-26T15:32:33;7.13;93.72
77100;SHT31;66602;48.922;2.414;2024-02-26T15:35:10;7.12;93.56
77100;SHT31;66602;48.922;2.414;2024-02-26T15:37:36;7.07;93.22
77100;SHT31;66602;48.922;2.414;2024-02-26T15:40:09;7.05;93.60
77100;SHT31;66602;48.922;2.414;2024-02-26T15:42:38;7.02;93.85
77100;SHT31;66602;48.922;2.414;2024-02-26T15:45:05;6.97;93.47
77100;SHT31;66602;48.922;2.414;2024-02-26T15:47:35;6.96;93.77
77100;SHT31;66602;48.922;2.414;2024-02-26T15:50:01;6.88;93.41
77100;SHT31;66602;48.922;2.414;2024-02-26T15:52:50;6.82;93.62
77100;SHT31;66602;48.922;2.414;2024-02-26T15:55:26;6.85;93.50
77100;SHT31;66602;48.922;2.414;2024-02-26T15:58:07;6.81;93.61
77100;SHT31;66602;48.922;2.414;2024-02-26T16:00:39;6.78;93.37
77100;SHT31;66602;48.922;2.414;2024-02-26T16:03:21;6.68;93.09
77100;SHT31;66602;48.922;2.414;2024-02-26T16:05:46;6.58;93.31
77100;SHT31;66602;48.922;2.414;2024-02-26T16:08:17;6.56;93.37
77100;SHT31;66602;48.922;2.414;2024-02-26T16:10:47;6.56;93.54
77100;SHT31;66602;48.922;2.414;2024-02-26T16:13:19;6.56;93.54
77100;SHT31;66602;48.922;2.414;2024-02-26T16:16:06;6.52;93.10
77100;SHT31;66602;48.922;2.414;2024-02-26T16:18:35;6.51;93.36
77100;SHT31;66602;48.922;2.414;2024-02-26T16:21:15;6.48;93.60
77100;SHT31;66602;48.922;2.414;2024-02-26T16:27:50;6.41;93.02
77100;SHT31;66602;48.922;2.414;2024-02-26T16:30:55;6.42;93.03
77100;SHT31;66602;48.922;2.414;2024-02-26T16:34:08;6.44;92.70
77100;SHT31;66602;48.922;2.414;2024-02-26T16:37:08;6.38;92.90
77100;SHT31;66602;48.922;2.414;2024-02-26T16:40:36;6.41;92.98
77100;SHT31;66602;48.922;2.414;2024-02-26T16:43:43;6.27;93.16
77100;SHT31;66602;48.922;2.414;2024-02-26T16:46:10;6.23;93.67
77100;SHT31;66602;48.922;2.414;2024-02-26T16:48:41;6.21;94.06
77100;SHT31;66602;48.922;2.414;2024-02-26T16:51:38;6.16;93.74
77100;SHT31;66602;48.922;2.414;2024-02-26T16:54:36;6.10;93.62
77100;SHT31;66602;48.922;2.414;2024-02-26T16:57:23;6.06;93.61
77100;SHT31;66602;48.922;2.414;2024-02-26T16:59:52;6.07;93.94
77100;SHT31;66602;48.922;2.414;2024-02-26T17:02:42;6.02;93.18
77100;SHT31;66602;48.922;2.414;2024-02-26T17:05:45;6.04;93.82
77100;SHT31;66602;48.922;2.414;2024-02-26T17:08:17;5.99;93.97
77100;SHT31;66602;48.922;2.414;2024-02-26T17:10:54;5.97;94.27
77100;SHT31;66602;48.922;2.414;2024-02-26T17:13:42;5.99;94.26
77100;SHT31;66602;48.922;2.414;2024-02-26T17:17:12;5.97;93.99
77100;SHT31;66602;48.922;2.414;2024-02-26T17:20:48;6.00;93.28
77100;SHT31;66602;48.922;2.414;2024-02-26T17:26:42;5.92;93.03
77100;SHT31;66602;48.922;2.414;2024-02-26T17:30:17;5.93;93.55
77100;SHT31;66602;48.922;2.414;2024-02-26T17:34:01;5.94;93.91
77100;SHT31;66602;48.922;2.414;2024-02-26T17:36:53;5.92;94.13
77100;SHT31;66602;48.922;2.414;2024-02-26T17:39:40;5.86;93.85
77100;SHT31;66602;48.922;2.414;2024-02-26T17:42:19;5.86;94.19
77100;SHT31;66602;48.922;2.414;2024-02-26T17:45:18;5.86;94.50
77100;SHT31;66602;48.922;2.414;2024-02-26T17:48:48;5.82;94.37
77100;SHT31;66602;48.922;2.414;2024-02-26T17:52:07;5.80;94.37
77100;SHT31;66602;48.922;2.414;2024-02-26T17:54:41;5.77;94.11
77100;SHT31;66602;48.922;2.414;2024-02-26T17:57:51;5.77;93.97
77100;SHT31;66602;48.922;2.414;2024-02-26T18:00:27;5.72;93.74
77100;SHT31;66602;48.922;2.414;2024-02-26T18:03:16;5.75;93.96